sensor_id;sensor_type;location;lat;lon;timestamp;P1;durP1;ratioP1;P2;durP2;ratioP2
79128;SDS011;68529;43.286;23.360;2023-03-21T00:01:09;6.50;;;5.73;;
79128;SDS011;68529;43.286;23.360;2023-03-21T00:03:36;6.20;;;5.60;;
79128;SDS011;68529;43.286;23.360;2023-03-21T00:06:09;6.20;;;5.60;;
79128;SDS011;68529;43.286;23.360;2023-03-21T00:08:36;6.60;;;5.57;;
79128;SDS011;68529;43.286;23.360;2023-03-21T00:11:03;5.60;;;5.00;;
79128;SDS011;68529;43.286;23.360;2023-03-21T00:13:30;6.23;;;5.50;;
79128;SDS011;68529;43.286;23.360;2023-03-21T00:16:20;5.00;;;4.57;;
79128;SDS011;68529;43.286;23.360;2023-03-21T00:18:46;6.03;;;5.43;;
79128;SDS011;68529;43.286;23.360;2023-03-21T00:21:17;6.23;;;4.80;;
79128;SDS011;68529;43.286;23.360;2023-03-21T00:23:44;6.60;;;5.57;;
79128;SDS011;68529;43.286;23.360;2023-03-21T00:26:10;5.60;;;4.93;;
79128;SDS011;68529;43.286;23.360;2023-03-21T00:28:37;5.83;;;5.00;;
79128;SDS011;68529;43.286;23.360;2023-03-21T00:31:06;5.97;;;4.97;;
79128;SDS011;68529;43.286;23.360;2023-03-21T00:33:32;5.60;;;5.00;;
79128;SDS011;68529;43.286;23.360;2023-03-21T00:35:58;5.90;;;5.30;;
79128;SDS011;68529;43.286;23.360;2023-03-21T00:38:24;6.10;;;5.00;;
79128;SDS011;68529;43.286;23.360;2023-03-21T00:40:50;6.30;;;5.70;;
79128;SDS011;68529;43.286;23.360;2023-03-21T00:43:15;5.80;;;4.80;;
79128;SDS011;68529;43.286;23.360;2023-03-21T00:45:43;5.23;;;4.73;;
79128;SDS011;68529;43.286;23.360;2023-03-21T00:48:10;5.10;;;4.43;;
79128;SDS011;68529;43.286;23.360;2023-03-21T00:50:36;5.40;;;4.90;;
79128;SDS011;68529;43.286;23.360;2023-03-21T00:53:02;7.33;;;5.70;;
79128;SDS011;68529;43.286;23.360;2023-03-21T00:55:29;5.83;;;5.10;;
79128;SDS011;68529;43.286;23.360;2023-03-21T00:57:54;5.73;;;5.13;;
79128;SDS011;68529;43.286;23.360;2023-03-21T01:00:19;5.50;;;4.93;;
79128;SDS011;68529;43.286;23.360;2023-03-21T01:02:46;5.33;;;4.83;;
79128;SDS011;68529;43.286;23.360;2023-03-21T01:05:24;6.37;;;5.07;;
79128;SDS011;68529;43.286;23.360;2023-03-21T01:08:10;6.63;;;4.97;;
79128;SDS011;68529;43.286;23.360;2023-03-21T01:10:37;5.90;;;4.50;;
79128;SDS011;68529;43.286;23.360;2023-03-21T01:13:08;5.70;;;4.87;;
79128;SDS011;68529;43.286;23.360;2023-03-21T01:15:34;6.90;;;5.30;;
79128;SDS011;68529;43.286;23.360;2023-03-21T01:18:00;5.00;;;4.50;;
79128;SDS011;68529;43.286;23.360;2023-03-21T01:20:26;5.70;;;5.10;;
79128;SDS011;68529;43.286;23.360;2023-03-21T01:22:52;5.17;;;4.67;;
79128;SDS011;68529;43.286;23.360;2023-03-21T01:25:17;5.53;;;4.83;;
79128;SDS011;68529;43.286;23.360;2023-03-21T01:27:43;6.63;;;4.73;;
79128;SDS011;68529;43.286;23.360;2023-03-21T01:30:08;5.70;;;4.90;;
79128;SDS011;68529;43.286;23.360;2023-03-21T01:32:34;5.93;;;4.80;;
79128;SDS011;68529;43.286;23.360;2023-03-21T01:35:00;5.93;;;5.33;;
79128;SDS011;68529;43.286;23.360;2023-03-21T01:37:25;6.03;;;4.80;;
79128;SDS011;68529;43.286;23.360;2023-03-21T01:39:51;5.57;;;5.00;;
79128;SDS011;68529;43.286;23.360;2023-03-21T01:42:16;4.90;;;4.43;;
79128;SDS011;68529;43.286;23.360;2023-03-21T01:47:55;6.03;;;4.83;;
79128;SDS011;68529;43.286;23.360;2023-03-21T01:50:20;5.47;;;4.83;;
79128;SDS011;68529;43.286;23.360;2023-03-21T01:52:46;4.70;;;4.23;;
79128;SDS011;68529;43.286;23.360;2023-03-21T01:55:14;5.67;;;4.97;;
79128;SDS011;68529;43.286;23.360;2023-03-21T01:57:45;4.90;;;4.47;;
79128;SDS011;68529;43.286;23.360;2023-03-21T02:00:13;5.43;;;4.80;;
79128;SDS011;68529;43.286;23.360;2023-03-21T02:02:41;5.17;;;4.60;;
79128;SDS011;68529;43.286;23.360;2023-03-21T02:05:18;5.33;;;4.80;;
79128;SDS011;68529;43.286;23.360;2023-03-21T02:07:48;4.67;;;4.23;;
79128;SDS011;68529;43.286;23.360;2023-03-21T02:10:16;5.10;;;4.60;;
79128;SDS011;68529;43.286;23.360;2023-03-21T02:12:42;4.87;;;4.47;;
79128;SDS011;68529;43.286;23.360;2023-03-21T02:15:08;5.17;;;4.67;;
79128;SDS011;68529;43.286;23.360;2023-03-21T02:20:11;4.87;;;4.37;;
79128;SDS011;68529;43.286;23.360;2023-03-21T02:22:54;4.70;;;4.30;;
79128;SDS011;68529;43.286;23.360;2023-03-21T02:25:32;5.73;;;4.60;;
79128;SDS011;68529;43.286;23.360;2023-03-21T02:28:12;5.17;;;4.40;;
79128;SDS011;68529;43.286;23.360;2023-03-21T02:41:32;4.63;;;4.23;;
79128;SDS011;68529;43.286;23.360;2023-03-21T02:47:04;5.60;;;4.57;;
79128;SDS011;68529;43.286;23.360;2023-03-21T02:50:14;4.60;;;4.20;;
79128;SDS011;68529;43.286;23.360;2023-03-21T02:52:39;5.17;;;4.37;;
79128;SDS011;68529;43.286;23.360;2023-03-21T02:55:08;5.13;;;4.33;;
79128;SDS011;68529;43.286;23.360;2023-03-21T02:57:38;5.00;;;4.50;;
79128;SDS011;68529;43.286;23.360;2023-03-21T03:00:04;5.43;;;4.20;;
79128;SDS011;68529;43.286;23.360;2023-03-21T03:02:35;5.00;;;4.30;;
79128;SDS011;68529;43.286;23.360;2023-03-21T03:05:00;4.70;;;4.30;;
79128;SDS011;68529;43.286;23.360;2023-03-21T03:07:29;4.70;;;4.30;;
79128;SDS011;68529;43.286;23.360;2023-03-21T03:23:18;5.00;;;4.20;;
79128;SDS011;68529;43.286;23.360;2023-03-21T03:26:01;4.40;;;4.00;;
79128;SDS011;68529;43.286;23.360;2023-03-21T03:28:30;4.30;;;3.90;;
79128;SDS011;68529;43.286;23.360;2023-03-21T03:30:59;4.33;;;3.93;;
79128;SDS011;68529;43.286;23.360;2023-03-21T03:33:25;4.40;;;4.00;;
79128;SDS011;68529;43.286;23.360;2023-03-21T03:35:51;4.80;;;4.20;;
79128;SDS011;68529;43.286;23.360;2023-03-21T03:38:17;4.73;;;4.33;;
79128;SDS011;68529;43.286;23.360;2023-03-21T03:40:47;4.40;;;4.00;;
79128;SDS011;68529;43.286;23.360;2023-03-21T03:43:15;4.53;;;4.13;;
79128;SDS011;68529;43.286;23.360;2023-03-21T03:45:48;4.30;;;3.90;;
79128;SDS011;68529;43.286;23.360;2023-03-21T03:53:29;4.60;;;4.20;;
79128;SDS011;68529;43.286;23.360;2023-03-21T03:55:56;4.30;;;3.90;;
79128;SDS011;68529;43.286;23.360;2023-03-21T03:58:24;4.80;;;4.40;;
79128;SDS011;68529;43.286;23.360;2023-03-21T04:00:52;4.40;;;4.00;;
79128;SDS011;68529;43.286;23.360;2023-03-21T04:03:18;4.07;;;3.67;;
79128;SDS011;68529;43.286;23.360;2023-03-21T04:05:43;4.20;;;3.80;;
79128;SDS011;68529;43.286;23.360;2023-03-21T04:08:12;4.50;;;4.10;;
79128;SDS011;68529;43.286;23.360;2023-03-21T04:10:38;4.53;;;4.07;;
79128;SDS011;68529;43.286;23.360;2023-03-21T04:13:04;4.10;;;3.70;;
79128;SDS011;68529;43.286;23.360;2023-03-21T04:15:30;4.70;;;4.30;;
79128;SDS011;68529;43.286;23.360;2023-03-21T04:17:55;4.63;;;4.23;;
79128;SDS011;68529;43.286;23.360;2023-03-21T04:20:21;4.50;;;4.10;;
79128;SDS011;68529;43.286;23.360;2023-03-21T04:22:46;4.17;;;3.77;;
79128;SDS011;68529;43.286;23.360;2023-03-21T04:25:13;4.40;;;4.00;;
79128;SDS011;68529;43.286;23.360;2023-03-21T04:27:38;4.43;;;4.03;;
79128;SDS011;68529;43.286;23.360;2023-03-21T04:30:04;4.10;;;3.70;;
79128;SDS011;68529;43.286;23.360;2023-03-21T04:32:31;4.70;;;4.20;;
79128;SDS011;68529;43.286;23.360;2023-03-21T04:34:58;4.47;;;4.00;;
79128;SDS011;68529;43.286;23.360;2023-03-21T04:37:24;4.67;;;4.10;;
79128;SDS011;68529;43.286;23.360;2023-03-21T04:39:49;4.13;;;3.80;;
79128;SDS011;68529;43.286;23.360;2023-03-21T04:42:16;4.77;;;4.37;;
79128;SDS011;68529;43.286;23.360;2023-03-21T04:44:46;4.73;;;3.80;;
79128;SDS011;68529;43.286;23.360;2023-03-21T04:47:12;4.20;;;3.80;;
79128;SDS011;68529;43.286;23.360;2023-03-21T04:49:39;4.77;;;4.27;;
79128;SDS011;68529;43.286;23.360;2023-03-21T04:52:05;4.93;;;4.43;;
79128;SDS011;68529;43.286;23.360;2023-03-21T04:54:31;4.20;;;3.80;;
79128;SDS011;68529;43.286;23.360;2023-03-21T04:56:59;4.90;;;4.40;;
79128;SDS011;68529;43.286;23.360;2023-03-21T04:59:24;4.60;;;4.10;;
79128;SDS011;68529;43.286;23.360;2023-03-21T05:01:50;4.57;;;3.93;;
79128;SDS011;68529;43.286;23.360;2023-03-21T05:04:16;4.50;;;4.03;;
79128;SDS011;68529;43.286;23.360;2023-03-21T05:06:41;5.43;;;3.93;;
79128;SDS011;68529;43.286;23.360;2023-03-21T05:09:08;5.10;;;4.17;;
79128;SDS011;68529;43.286;23.360;2023-03-21T05:11:34;4.73;;;4.30;;
79128;SDS011;68529;43.286;23.360;2023-03-21T05:14:05;4.40;;;4.00;;
79128;SDS011;68529;43.286;23.360;2023-03-21T05:16:33;4.53;;;4.13;;
79128;SDS011;68529;43.286;23.360;2023-03-21T05:19:00;4.60;;;4.20;;
79128;SDS011;68529;43.286;23.360;2023-03-21T05:21:33;4.73;;;4.33;;
79128;SDS011;68529;43.286;23.360;2023-03-21T05:24:05;4.47;;;4.07;;
79128;SDS011;68529;43.286;23.360;2023-03-21T05:26:36;4.70;;;4.23;;
79128;SDS011;68529;43.286;23.360;2023-03-21T05:29:06;4.70;;;4.30;;
79128;SDS011;68529;43.286;23.360;2023-03-21T05:31:32;4.17;;;3.77;;
79128;SDS011;68529;43.286;23.360;2023-03-21T05:33:57;4.80;;;4.40;;
79128;SDS011;68529;43.286;23.360;2023-03-21T05:36:23;4.97;;;4.43;;
79128;SDS011;68529;43.286;23.360;2023-03-21T05:38:48;5.03;;;4.53;;
79128;SDS011;68529;43.286;23.360;2023-03-21T05:41:14;4.93;;;4.43;;
79128;SDS011;68529;43.286;23.360;2023-03-21T05:43:40;4.60;;;4.20;;
79128;SDS011;68529;43.286;23.360;2023-03-21T05:46:06;4.97;;;4.07;;
79128;SDS011;68529;43.286;23.360;2023-03-21T05:48:38;4.80;;;4.20;;
79128;SDS011;68529;43.286;23.360;2023-03-21T05:51:04;4.90;;;4.43;;
79128;SDS011;68529;43.286;23.360;2023-03-21T05:53:30;6.77;;;5.33;;
79128;SDS011;68529;43.286;23.360;2023-03-21T05:55:55;6.17;;;5.37;;
79128;SDS011;68529;43.286;23.360;2023-03-21T05:58:21;8.20;;;6.73;;
79128;SDS011;68529;43.286;23.360;2023-03-21T06:00:46;7.80;;;7.00;;
79128;SDS011;68529;43.286;23.360;2023-03-21T06:03:12;8.13;;;7.33;;
79128;SDS011;68529;43.286;23.360;2023-03-21T06:05:37;9.33;;;8.40;;
79128;SDS011;68529;43.286;23.360;2023-03-21T06:08:02;9.90;;;8.90;;
79128;SDS011;68529;43.286;23.360;2023-03-21T06:10:28;9.93;;;9.03;;
79128;SDS011;68529;43.286;23.360;2023-03-21T06:12:53;9.60;;;8.70;;
79128;SDS011;68529;43.286;23.360;2023-03-21T06:15:19;10.23;;;9.23;;
79128;SDS011;68529;43.286;23.360;2023-03-21T06:17:44;12.00;;;10.73;;
79128;SDS011;68529;43.286;23.360;2023-03-21T06:20:10;12.60;;;10.77;;
79128;SDS011;68529;43.286;23.360;2023-03-21T06:22:36;11.83;;;10.67;;
79128;SDS011;68529;43.286;23.360;2023-03-21T06:25:02;12.80;;;11.43;;
79128;SDS011;68529;43.286;23.360;2023-03-21T06:27:29;13.93;;;12.23;;
79128;SDS011;68529;43.286;23.360;2023-03-21T06:29:54;14.00;;;12.20;;
79128;SDS011;68529;43.286;23.360;2023-03-21T06:32:21;16.07;;;12.43;;
79128;SDS011;68529;43.286;23.360;2023-03-21T06:34:47;16.70;;;12.80;;
79128;SDS011;68529;43.286;23.360;2023-03-21T06:37:13;15.50;;;12.47;;
79128;SDS011;68529;43.286;23.360;2023-03-21T06:39:38;15.13;;;12.47;;
79128;SDS011;68529;43.286;23.360;2023-03-21T06:42:04;15.13;;;12.63;;
79128;SDS011;68529;43.286;23.360;2023-03-21T06:44:30;16.80;;;13.17;;
79128;SDS011;68529;43.286;23.360;2023-03-21T06:46:55;15.27;;;12.07;;
79128;SDS011;68529;43.286;23.360;2023-03-21T06:49:20;17.17;;;13.37;;
79128;SDS011;68529;43.286;23.360;2023-03-21T06:51:46;15.73;;;12.90;;
79128;SDS011;68529;43.286;23.360;2023-03-21T06:54:11;21.33;;;13.07;;
79128;SDS011;68529;43.286;23.360;2023-03-21T06:56:38;24.70;;;15.93;;
79128;SDS011;68529;43.286;23.360;2023-03-21T06:59:04;26.37;;;15.07;;
79128;SDS011;68529;43.286;23.360;2023-03-21T07:01:30;26.60;;;15.83;;
79128;SDS011;68529;43.286;23.360;2023-03-21T07:03:56;33.70;;;18.03;;
79128;SDS011;68529;43.286;23.360;2023-03-21T07:06:23;34.23;;;17.27;;
79128;SDS011;68529;43.286;23.360;2023-03-21T07:08:50;37.30;;;18.37;;
79128;SDS011;68529;43.286;23.360;2023-03-21T07:11:16;32.87;;;16.50;;
79128;SDS011;68529;43.286;23.360;2023-03-21T07:13:43;35.33;;;18.63;;
79128;SDS011;68529;43.286;23.360;2023-03-21T07:16:09;37.77;;;19.67;;
79128;SDS011;68529;43.286;23.360;2023-03-21T07:18:35;34.00;;;18.20;;
79128;SDS011;68529;43.286;23.360;2023-03-21T07:21:00;41.90;;;20.27;;
79128;SDS011;68529;43.286;23.360;2023-03-21T07:23:26;42.13;;;20.33;;
79128;SDS011;68529;43.286;23.360;2023-03-21T07:25:52;40.50;;;19.30;;
79128;SDS011;68529;43.286;23.360;2023-03-21T07:28:18;37.73;;;19.33;;
79128;SDS011;68529;43.286;23.360;2023-03-21T07:30:44;38.50;;;19.33;;
79128;SDS011;68529;43.286;23.360;2023-03-21T07:33:15;40.33;;;19.97;;
79128;SDS011;68529;43.286;23.360;2023-03-21T07:35:40;41.07;;;20.33;;
79128;SDS011;68529;43.286;23.360;2023-03-21T07:38:06;40.47;;;19.63;;
79128;SDS011;68529;43.286;23.360;2023-03-21T07:40:31;42.10;;;20.50;;
79128;SDS011;68529;43.286;23.360;2023-03-21T07:42:57;37.80;;;19.50;;
79128;SDS011;68529;43.286;23.360;2023-03-21T07:45:23;44.03;;;21.40;;
79128;SDS011;68529;43.286;23.360;2023-03-21T07:47:50;37.97;;;19.00;;
79128;SDS011;68529;43.286;23.360;2023-03-21T07:50:16;40.73;;;19.20;;
79128;SDS011;68529;43.286;23.360;2023-03-21T07:52:42;34.90;;;18.47;;
79128;SDS011;68529;43.286;23.360;2023-03-21T07:55:08;42.37;;;18.80;;
79128;SDS011;68529;43.286;23.360;2023-03-21T07:57:34;36.17;;;18.40;;
79128;SDS011;68529;43.286;23.360;2023-03-21T08:00:00;32.30;;;18.23;;
79128;SDS011;68529;43.286;23.360;2023-03-21T08:02:26;34.37;;;17.73;;
79128;SDS011;68529;43.286;23.360;2023-03-21T08:04:51;34.70;;;17.70;;
79128;SDS011;68529;43.286;23.360;2023-03-21T08:07:17;35.57;;;17.67;;
79128;SDS011;68529;43.286;23.360;2023-03-21T08:09:42;33.40;;;17.27;;
79128;SDS011;68529;43.286;23.360;2023-03-21T08:12:08;33.30;;;16.87;;
79128;SDS011;68529;43.286;23.360;2023-03-21T08:14:33;30.00;;;16.03;;
79128;SDS011;68529;43.286;23.360;2023-03-21T08:17:00;32.97;;;16.77;;
79128;SDS011;68529;43.286;23.360;2023-03-21T08:19:26;29.57;;;16.43;;
79128;SDS011;68529;43.286;23.360;2023-03-21T08:21:52;27.83;;;16.13;;
79128;SDS011;68529;43.286;23.360;2023-03-21T08:24:17;33.50;;;16.00;;
79128;SDS011;68529;43.286;23.360;2023-03-21T08:26:43;24.93;;;15.17;;
79128;SDS011;68529;43.286;23.360;2023-03-21T08:29:16;28.70;;;16.97;;
79128;SDS011;68529;43.286;23.360;2023-03-21T08:31:43;28.67;;;14.63;;
79128;SDS011;68529;43.286;23.360;2023-03-21T08:34:09;28.50;;;14.70;;
79128;SDS011;68529;43.286;23.360;2023-03-21T08:36:35;24.57;;;14.37;;
79128;SDS011;68529;43.286;23.360;2023-03-21T08:39:01;26.40;;;14.77;;
79128;SDS011;68529;43.286;23.360;2023-03-21T08:41:31;25.17;;;14.50;;
79128;SDS011;68529;43.286;23.360;2023-03-21T08:43:57;32.17;;;15.77;;
79128;SDS011;68529;43.286;23.360;2023-03-21T08:46:22;23.37;;;13.77;;
79128;SDS011;68529;43.286;23.360;2023-03-21T08:48:48;21.23;;;13.63;;
79128;SDS011;68529;43.286;23.360;2023-03-21T08:51:13;22.23;;;13.30;;
79128;SDS011;68529;43.286;23.360;2023-03-21T08:53:39;26.83;;;13.93;;
79128;SDS011;68529;43.286;23.360;2023-03-21T08:56:06;26.20;;;14.43;;
79128;SDS011;68529;43.286;23.360;2023-03-21T08:58:32;24.13;;;13.63;;
79128;SDS011;68529;43.286;23.360;2023-03-21T09:00:57;23.20;;;13.23;;
79128;SDS011;68529;43.286;23.360;2023-03-21T09:03:22;22.87;;;12.47;;
79128;SDS011;68529;43.286;23.360;2023-03-21T09:05:48;21.83;;;12.53;;
79128;SDS011;68529;43.286;23.360;2023-03-21T09:08:14;20.13;;;12.57;;
79128;SDS011;68529;43.286;23.360;2023-03-21T09:10:39;22.47;;;13.17;;
79128;SDS011;68529;43.286;23.360;2023-03-21T09:13:05;23.23;;;13.07;;
79128;SDS011;68529;43.286;23.360;2023-03-21T09:15:30;21.07;;;13.27;;
79128;SDS011;68529;43.286;23.360;2023-03-21T09:17:56;22.03;;;12.57;;
79128;SDS011;68529;43.286;23.360;2023-03-21T09:20:23;22.60;;;12.43;;
79128;SDS011;68529;43.286;23.360;2023-03-21T09:22:55;19.70;;;12.37;;
79128;SDS011;68529;43.286;23.360;2023-03-21T09:25:21;28.47;;;12.63;;
79128;SDS011;68529;43.286;23.360;2023-03-21T09:27:47;21.37;;;12.17;;
79128;SDS011;68529;43.286;23.360;2023-03-21T09:30:14;20.97;;;12.00;;
79128;SDS011;68529;43.286;23.360;2023-03-21T09:32:41;20.73;;;11.57;;
79128;SDS011;68529;43.286;23.360;2023-03-21T09:35:06;20.90;;;12.37;;
79128;SDS011;68529;43.286;23.360;2023-03-21T09:37:32;19.13;;;11.77;;
79128;SDS011;68529;43.286;23.360;2023-03-21T09:39:58;20.73;;;12.23;;
79128;SDS011;68529;43.286;23.360;2023-03-21T09:42:28;19.00;;;11.30;;
79128;SDS011;68529;43.286;23.360;2023-03-21T09:47:44;18.60;;;11.33;;
79128;SDS011;68529;43.286;23.360;2023-03-21T09:50:21;17.67;;;11.03;;
79128;SDS011;68529;43.286;23.360;2023-03-21T09:53:34;18.30;;;11.27;;
79128;SDS011;68529;43.286;23.360;2023-03-21T09:56:00;16.63;;;11.10;;
79128;SDS011;68529;43.286;23.360;2023-03-21T09:58:31;15.60;;;10.37;;
79128;SDS011;68529;43.286;23.360;2023-03-21T10:01:16;18.63;;;10.97;;
79128;SDS011;68529;43.286;23.360;2023-03-21T10:03:51;18.07;;;9.77;;
79128;SDS011;68529;43.286;23.360;2023-03-21T10:06:18;19.40;;;10.40;;
79128;SDS011;68529;43.286;23.360;2023-03-21T10:08:45;17.53;;;9.53;;
79128;SDS011;68529;43.286;23.360;2023-03-21T10:11:13;15.30;;;9.40;;
79128;SDS011;68529;43.286;23.360;2023-03-21T10:13:43;14.97;;;10.10;;
79128;SDS011;68529;43.286;23.360;2023-03-21T10:16:14;17.17;;;9.77;;
79128;SDS011;68529;43.286;23.360;2023-03-21T10:18:42;15.87;;;9.63;;
79128;SDS011;68529;43.286;23.360;2023-03-21T10:21:10;16.80;;;10.00;;
79128;SDS011;68529;43.286;23.360;2023-03-21T10:23:40;12.57;;;8.70;;
79128;SDS011;68529;43.286;23.360;2023-03-21T10:26:05;13.43;;;9.47;;
79128;SDS011;68529;43.286;23.360;2023-03-21T10:28:34;14.50;;;9.40;;
79128;SDS011;68529;43.286;23.360;2023-03-21T10:31:01;14.03;;;9.00;;
79128;SDS011;68529;43.286;23.360;2023-03-21T10:33:33;15.83;;;8.93;;
79128;SDS011;68529;43.286;23.360;2023-03-21T10:36:22;13.40;;;8.77;;
79128;SDS011;68529;43.286;23.360;2023-03-21T10:38:52;15.60;;;9.07;;
79128;SDS011;68529;43.286;23.360;2023-03-21T10:41:18;15.00;;;8.97;;
79128;SDS011;68529;43.286;23.360;2023-03-21T10:43:45;13.07;;;9.00;;
79128;SDS011;68529;43.286;23.360;2023-03-21T10:48:41;13.13;;;8.93;;
79128;SDS011;68529;43.286;23.360;2023-03-21T10:51:13;14.43;;;9.00;;
79128;SDS011;68529;43.286;23.360;2023-03-21T10:53:44;12.20;;;8.13;;
79128;SDS011;68529;43.286;23.360;2023-03-21T10:56:11;15.70;;;8.60;;
79128;SDS011;68529;43.286;23.360;2023-03-21T10:58:38;15.40;;;8.67;;
79128;SDS011;68529;43.286;23.360;2023-03-21T11:01:09;17.37;;;9.50;;
79128;SDS011;68529;43.286;23.360;2023-03-21T11:03:39;18.20;;;9.73;;
79128;SDS011;68529;43.286;23.360;2023-03-21T11:08:47;17.53;;;9.70;;
79128;SDS011;68529;43.286;23.360;2023-03-21T11:11:34;18.40;;;10.17;;
79128;SDS011;68529;43.286;23.360;2023-03-21T11:14:02;20.37;;;11.03;;
79128;SDS011;68529;43.286;23.360;2023-03-21T11:16:38;20.60;;;10.63;;
79128;SDS011;68529;43.286;23.360;2023-03-21T11:19:28;16.30;;;9.73;;
79128;SDS011;68529;43.286;23.360;2023-03-21T11:21:56;17.97;;;9.50;;
79128;SDS011;68529;43.286;23.360;2023-03-21T11:24:28;18.40;;;10.20;;
79128;SDS011;68529;43.286;23.360;2023-03-21T11:26:55;19.63;;;10.13;;
79128;SDS011;68529;43.286;23.360;2023-03-21T11:31:49;19.70;;;10.03;;
79128;SDS011;68529;43.286;23.360;2023-03-21T11:34:49;18.93;;;10.13;;
79128;SDS011;68529;43.286;23.360;2023-03-21T11:37:16;18.90;;;9.63;;
79128;SDS011;68529;43.286;23.360;2023-03-21T11:39:43;17.57;;;9.83;;
79128;SDS011;68529;43.286;23.360;2023-03-21T11:42:26;18.77;;;10.20;;
79128;SDS011;68529;43.286;23.360;2023-03-21T11:44:57;17.93;;;10.10;;
79128;SDS011;68529;43.286;23.360;2023-03-21T11:47:25;14.50;;;8.93;;
79128;SDS011;68529;43.286;23.360;2023-03-21T11:49:51;17.27;;;9.60;;
79128;SDS011;68529;43.286;23.360;2023-03-21T11:52:24;21.07;;;10.00;;
79128;SDS011;68529;43.286;23.360;2023-03-21T12:00:16;15.57;;;9.33;;
79128;SDS011;68529;43.286;23.360;2023-03-21T12:02:51;16.23;;;10.23;;
79128;SDS011;68529;43.286;23.360;2023-03-21T12:05:26;16.90;;;9.57;;
79128;SDS011;68529;43.286;23.360;2023-03-21T12:10:51;19.67;;;9.20;;
79128;SDS011;68529;43.286;23.360;2023-03-21T12:21:37;13.30;;;8.90;;
79128;SDS011;68529;43.286;23.360;2023-03-21T12:24:29;16.73;;;9.50;;
79128;SDS011;68529;43.286;23.360;2023-03-21T12:29:57;15.00;;;9.37;;
79128;SDS011;68529;43.286;23.360;2023-03-21T12:37:46;13.77;;;8.30;;
79128;SDS011;68529;43.286;23.360;2023-03-21T12:40:26;14.90;;;8.83;;
79128;SDS011;68529;43.286;23.360;2023-03-21T12:43:17;12.73;;;8.27;;
79128;SDS011;68529;43.286;23.360;2023-03-21T12:45:47;17.33;;;9.10;;
79128;SDS011;68529;43.286;23.360;2023-03-21T12:51:12;12.40;;;8.47;;
79128;SDS011;68529;43.286;23.360;2023-03-21T12:56:47;14.67;;;8.40;;
79128;SDS011;68529;43.286;23.360;2023-03-21T13:04:43;11.93;;;8.17;;
79128;SDS011;68529;43.286;23.360;2023-03-21T13:07:13;13.17;;;7.70;;
79128;SDS011;68529;43.286;23.360;2023-03-21T13:09:42;13.80;;;8.63;;
79128;SDS011;68529;43.286;23.360;2023-03-21T13:15:38;14.43;;;8.90;;
79128;SDS011;68529;43.286;23.360;2023-03-21T13:21:11;13.73;;;8.20;;
79128;SDS011;68529;43.286;23.360;2023-03-21T13:23:40;14.87;;;8.03;;
79128;SDS011;68529;43.286;23.360;2023-03-21T13:26:19;13.13;;;7.67;;
79128;SDS011;68529;43.286;23.360;2023-03-21T13:28:45;10.13;;;8.53;;
79128;SDS011;68529;43.286;23.360;2023-03-21T13:31:16;13.10;;;8.33;;
79128;SDS011;68529;43.286;23.360;2023-03-21T13:34:02;14.50;;;8.70;;
79128;SDS011;68529;43.286;23.360;2023-03-21T13:36:28;12.53;;;8.27;;
79128;SDS011;68529;43.286;23.360;2023-03-21T13:39:02;14.67;;;8.47;;
79128;SDS011;68529;43.286;23.360;2023-03-21T13:41:36;14.77;;;7.90;;
79128;SDS011;68529;43.286;23.360;2023-03-21T13:48:54;11.70;;;7.83;;
79128;SDS011;68529;43.286;23.360;2023-03-21T13:54:01;12.13;;;8.37;;
79128;SDS011;68529;43.286;23.360;2023-03-21T13:56:27;12.53;;;7.93;;
79128;SDS011;68529;43.286;23.360;2023-03-21T13:59:01;11.40;;;8.20;;
79128;SDS011;68529;43.286;23.360;2023-03-21T14:01:40;11.30;;;7.50;;
79128;SDS011;68529;43.286;23.360;2023-03-21T14:04:11;11.43;;;7.70;;
79128;SDS011;68529;43.286;23.360;2023-03-21T14:09:15;11.43;;;7.73;;
79128;SDS011;68529;43.286;23.360;2023-03-21T14:11:44;11.30;;;8.30;;
79128;SDS011;68529;43.286;23.360;2023-03-21T14:14:12;11.33;;;7.80;;
79128;SDS011;68529;43.286;23.360;2023-03-21T14:16:38;10.80;;;7.57;;
79128;SDS011;68529;43.286;23.360;2023-03-21T14:19:04;10.73;;;8.00;;
79128;SDS011;68529;43.286;23.360;2023-03-21T14:21:31;13.30;;;8.10;;
79128;SDS011;68529;43.286;23.360;2023-03-21T14:23:59;10.50;;;7.87;;
79128;SDS011;68529;43.286;23.360;2023-03-21T14:26:30;12.07;;;7.97;;
79128;SDS011;68529;43.286;23.360;2023-03-21T14:29:01;8.90;;;7.23;;
79128;SDS011;68529;43.286;23.360;2023-03-21T14:31:28;11.73;;;7.70;;
79128;SDS011;68529;43.286;23.360;2023-03-21T14:33:57;9.83;;;7.37;;
79128;SDS011;68529;43.286;23.360;2023-03-21T14:36:24;10.10;;;7.53;;
79128;SDS011;68529;43.286;23.360;2023-03-21T14:39:05;12.50;;;8.10;;
79128;SDS011;68529;43.286;23.360;2023-03-21T14:41:42;10.83;;;7.67;;
79128;SDS011;68529;43.286;23.360;2023-03-21T14:46:41;11.17;;;6.60;;
79128;SDS011;68529;43.286;23.360;2023-03-21T14:51:36;9.63;;;7.53;;
79128;SDS011;68529;43.286;23.360;2023-03-21T14:54:03;10.03;;;7.60;;
79128;SDS011;68529;43.286;23.360;2023-03-21T14:56:28;10.03;;;6.90;;
79128;SDS011;68529;43.286;23.360;2023-03-21T14:58:54;9.07;;;6.67;;
79128;SDS011;68529;43.286;23.360;2023-03-21T15:01:29;11.53;;;6.53;;
79128;SDS011;68529;43.286;23.360;2023-03-21T15:03:59;12.27;;;7.17;;
79128;SDS011;68529;43.286;23.360;2023-03-21T15:06:25;9.70;;;6.87;;
79128;SDS011;68529;43.286;23.360;2023-03-21T15:09:01;10.20;;;7.57;;
79128;SDS011;68529;43.286;23.360;2023-03-21T15:11:37;11.27;;;7.20;;
79128;SDS011;68529;43.286;23.360;2023-03-21T15:14:06;8.73;;;7.13;;
79128;SDS011;68529;43.286;23.360;2023-03-21T15:16:34;9.57;;;6.60;;
79128;SDS011;68529;43.286;23.360;2023-03-21T15:19:00;8.93;;;6.63;;
79128;SDS011;68529;43.286;23.360;2023-03-21T15:24:04;10.57;;;7.50;;
79128;SDS011;68529;43.286;23.360;2023-03-21T15:26:37;8.63;;;6.63;;
79128;SDS011;68529;43.286;23.360;2023-03-21T15:29:04;9.60;;;6.87;;
79128;SDS011;68529;43.286;23.360;2023-03-21T15:31:33;8.57;;;7.13;;
79128;SDS011;68529;43.286;23.360;2023-03-21T15:33:59;10.20;;;6.93;;
79128;SDS011;68529;43.286;23.360;2023-03-21T15:36:32;9.27;;;6.97;;
79128;SDS011;68529;43.286;23.360;2023-03-21T15:39:05;9.07;;;6.57;;
79128;SDS011;68529;43.286;23.360;2023-03-21T15:41:33;8.70;;;6.70;;
79128;SDS011;68529;43.286;23.360;2023-03-21T15:51:48;8.70;;;7.17;;
79128;SDS011;68529;43.286;23.360;2023-03-21T15:55:00;10.80;;;7.53;;
79128;SDS011;68529;43.286;23.360;2023-03-21T16:02:42;11.37;;;8.17;;
79128;SDS011;68529;43.286;23.360;2023-03-21T16:07:56;10.87;;;7.90;;
79128;SDS011;68529;43.286;23.360;2023-03-21T16:10:27;10.50;;;7.50;;
79128;SDS011;68529;43.286;23.360;2023-03-21T16:12:59;10.73;;;8.17;;
79128;SDS011;68529;43.286;23.360;2023-03-21T16:15:25;11.17;;;7.73;;
79128;SDS011;68529;43.286;23.360;2023-03-21T16:17:55;12.07;;;8.53;;
79128;SDS011;68529;43.286;23.360;2023-03-21T16:20:22;11.63;;;8.40;;
79128;SDS011;68529;43.286;23.360;2023-03-21T16:22:50;12.37;;;9.30;;
79128;SDS011;68529;43.286;23.360;2023-03-21T16:25:15;10.90;;;9.00;;
79128;SDS011;68529;43.286;23.360;2023-03-21T16:27:41;11.90;;;8.87;;
79128;SDS011;68529;43.286;23.360;2023-03-21T16:30:07;10.30;;;9.23;;
79128;SDS011;68529;43.286;23.360;2023-03-21T16:32:35;12.77;;;8.93;;
79128;SDS011;68529;43.286;23.360;2023-03-21T16:35:01;12.97;;;8.60;;
79128;SDS011;68529;43.286;23.360;2023-03-21T16:37:26;12.90;;;9.03;;